Nevers-Fourchambault Airport

Airport
ICAO code: 
LFQG
IATA Code: 
NVS
Summary
ICAO Region: 
EUR
Territory: 
Location: 
, Bourgogne
Serving: 
Nevers
Elevation: 
602 ft
Coordinates: 
Aerial View: 
47° 0' 9.45" N, 3° 6' 47.999" E
Metar
Observation
LFQG 231630Z AUTO 35003KT 9999 OVC017 03/01 Q1031
Station
Nevers
Date/Time
2022-01-23 16:30:00
Wind direction
350°
Wind speed
03 kts
Lowest cloud amount
overcast
Temperature
3°C
Dew point
1°C
Humidity
86%
QNH
1031 hPa
Weather condition
n/a

Runways

Designator Length Width Surface Rops
12/30 1630 30 ASP No/No
Airport map: 
Aerial View: 

SKYbrary Partners:

Safety knowledge contributed by: